Robijn — PBEJ — position and weather

sailwx.info

Track history (hours):
 
Tides and Currents Weather Stations Pressure Air Temp Water Temp Dewpoint Dewpoint Depression Visibility Wind Speed Wind Dir Waves Ship Positions

Robijn

Last reported at 2015-May-04 09:09 UTC. Time now 2015-May-04 17:05 UTC.
Position N 50°02' W 002°49'.

Length 90 m; draft 5.3 m.

Type: Cargo ship. MMSI: 245909000.

Date/timePositionNaut miles runAvg speedWind from/ knotsBaromVisibWave heightAir tempDewpointWater temp
2015-May-04 09:09N 50°02' W 002°49'8 8.1
2015-May-04 08:08N 50°04' W 002°36'8 7.5
2015-May-04 07:05N 50°06' W 002°24'12 7.8
2015-May-04 05:31N 50°10' W 002°06'8810.8
2015-May-03 21:23N 50°33' E 000°07'6 7.8
2015-May-03 20:33N 50°35' E 000°17'8 7.8
2015-May-03 19:33N 50°38' E 000°28'9 9.0
2015-May-03 18:33N 50°42' E 000°41'1010.3
2015-May-03 17:33N 50°48' E 000°54'1110.6
2015-May-03 16:30N 50°54' E 001°09'1010.1
2015-May-03 15:33N 51°00' E 001°20'9 8.8
2015-May-03 14:33N 51°06' E 001°31'7 7.0
2015-May-03 13:34N 51°11' E 001°39'7 6.8
2015-May-03 12:34N 51°16' E 001°47'7 7.3
2015-May-03 11:33N 51°22' E 001°52'9 9.0
2015-May-03 10:33N 51°30' E 001°59'1110.9
2015-May-03 09:32N 51°38' E 002°11'6911.1
2015-May-03 03:22N 52°32' E 003°22'8 9.3
2015-May-03 02:33N 52°38' E 003°29'9 9.2
2015-May-03 01:33N 52°45' E 003°39'10 9.8
2015-May-03 00:31N 52°53' E 003°49'1010.9
2015-May-02 23:33N 53°00' E 004°02'1211.6
2015-May-02 22:33N 53°08' E 004°17'1411.5
2015-May-02 21:22N 53°19' E 004°30'911.3
2015-May-02 20:33N 53°27' E 004°37'1010.5
2015-May-02 19:33N 53°31' E 004°53'10 9.8
2015-May-02 18:33N 53°35' E 005°09'9 9.4
2015-May-02 17:33N 53°37' E 005°24'10 9.6
2015-May-02 16:33N 53°40' E 005°39'1010.3
2015-May-02 15:33N 53°44' E 005°56'4611.4
2015-May-02 11:29N 53°57' E 007°11'1010.5
2015-May-02 10:33N 53°59' E 007°27'10 9.8
2015-May-02 09:33N 54°01' E 007°44'10 9.6
2015-May-02 08:33N 54°01' E 008°00'9 9.2
2015-May-02 07:33N 54°01' E 008°16'9 9.1
2015-May-02 06:33N 53°59' E 008°31'1111.4
2015-May-02 05:33N 53°51' E 008°46'1313.1
2015-May-02 04:33N 53°53' E 009°08'5 4.6
2015-May-02 03:33N 53°56' E 009°13'8 8.0
2015-May-02 02:33N 54°04' E 009°19'14 4.5
2015-May-01 23:25N 54°13' E 009°36'9 6.6
2015-May-01 22:04N 54°20' E 009°45'5 7.4
2015-May-01 21:23N 54°21' E 009°53'4 5.0
2015-May-01 20:33N 54°21' E 010°00'4 4.2
2015-May-01 19:33N 54°22' E 010°08'0 0.0
2015-May-01 18:33N 54°22' E 010°08'1 0.6
2015-May-01 17:33N 54°22' E 010°09'6 6.1
2015-May-01 16:33N 54°27' E 010°14'1111.1
2015-May-01 15:33N 54°33' E 010°30'1211.3
2015-May-01 14:30N 54°35' E 010°51'1111.5
2015-May-01 13:33N 54°36' E 011°10'1211.8
2015-May-01 12:33N 54°32' E 011°28'1211.8
2015-May-01 11:33N 54°28' E 011°48'1111.4
2015-May-01 10:33N 54°27' E 012°07'1111.0
2015-May-01 09:33N 54°34' E 012°21'1211.5
2015-May-01 08:33N 54°39' E 012°40'1111.4
2015-May-01 07:33N 54°41' E 012°59'1211.7
2015-May-01 06:33N 54°42' E 013°19'1110.7
2015-May-01 05:33N 54°39' E 013°37'1111.2
2015-May-01 04:33N 54°31' E 013°51'1111.3
2015-May-01 03:33N 54°21' E 013°59'1111.4
2015-May-01 02:33N 54°11' E 014°07'1111.3
2015-May-01 01:33N 54°01' E 014°15'8 8.3
2015-May-01 00:33N 53°52' E 014°17'9 9.0
2015-Apr-30 23:33N 53°45' E 014°25'1110.5
2015-Apr-30 22:33N 53°36' E 014°35'9 8.7
2015-Apr-30 21:33N 53°28' E 014°36'3 3.2
2015-Apr-30 20:31N 53°24' E 014°36'0 0.0
2015-Apr-30 19:31N 53°24' E 014°36'0 0.0
2015-Apr-30 18:31N 53°24' E 014°36'0 0.0
2015-Apr-30 17:31N 53°24' E 014°36'0 0.0
2015-Apr-30 16:31N 53°24' E 014°36'0 0.0
2015-Apr-30 15:31N 53°24' E 014°36'0 0.0
2015-Apr-30 14:31N 53°24' E 014°36'0 0.0
2015-Apr-30 13:31N 53°24' E 014°36'0 0.0
2015-Apr-30 12:31N 53°24' E 014°36'0 0.0
2015-Apr-30 11:31N 53°24' E 014°36'0 0.0
2015-Apr-30 10:31N 53°24' E 014°36'0 0.0
2015-Apr-30 09:31N 53°24' E 014°36'0 0.0
2015-Apr-30 08:31N 53°24' E 014°36'0 0.0
2015-Apr-30 07:31N 53°24' E 014°36'0 0.0
2015-Apr-30 06:31N 53°24' E 014°36'0 0.0
2015-Apr-30 05:31N 53°24' E 014°36'0 0.0
2015-Apr-30 04:31N 53°24' E 014°36'0 0.0
2015-Apr-30 03:31N 53°24' E 014°36'0 0.0
2015-Apr-30 02:31N 53°24' E 014°36'0 0.0
2015-Apr-30 01:31N 53°24' E 014°36'0 0.0
2015-Apr-30 00:31N 53°24' E 014°36'0 0.0
2015-Apr-29 23:31N 53°24' E 014°36'0 0.0
2015-Apr-29 22:31N 53°24' E 014°36'0 0.0
2015-Apr-29 21:31N 53°24' E 014°36'0 0.0
2015-Apr-29 20:31N 53°24' E 014°36'0 0.0
2015-Apr-29 19:31N 53°24' E 014°36'0 0.0
2015-Apr-29 18:31N 53°24' E 014°36'0 0.0
2015-Apr-29 17:28N 53°24' E 014°36'0 0.0
2015-Apr-29 16:31N 53°24' E 014°36'0 0.0
2015-Apr-29 15:31N 53°24' E 014°36'0 0.0
2015-Apr-29 14:31N 53°24' E 014°36'0 0.0
2015-Apr-29 13:31N 53°24' E 014°36'0 0.0
2015-Apr-29 12:31N 53°24' E 014°36'0 0.0
2015-Apr-29 11:31N 53°24' E 014°36'0 0.0
2015-Apr-29 10:31N 53°24' E 014°36'0 0.0
2015-Apr-29 09:31N 53°24' E 014°36'0 0.0
2015-Apr-29 08:31N 53°24' E 014°36'2 2.2
2015-Apr-29 07:33N 53°26' E 014°35'1 0.6
2015-Apr-29 06:32N 53°26' E 014°35'0 0.0
2015-Apr-29 05:32N 53°26' E 014°35'0 0.0
2015-Apr-29 04:32N 53°26' E 014°35'0 0.0
2015-Apr-29 03:33N 53°26' E 014°35'0 0.0
2015-Apr-29 02:32N 53°26' E 014°35'0 0.0
2015-Apr-29 01:32N 53°26' E 014°35'0 0.0
2015-Apr-29 00:32N 53°26' E 014°35'0 0.0
2015-Apr-28 23:32N 53°26' E 014°35'0 0.0
2015-Apr-28 22:32N 53°26' E 014°35'0 0.0
2015-Apr-28 21:32N 53°26' E 014°35'0 0.0
2015-Apr-28 20:32N 53°26' E 014°35'0 0.0
2015-Apr-28 19:32N 53°26' E 014°35'0 0.0
2015-Apr-28 18:32N 53°26' E 014°35'0 0.0
2015-Apr-28 17:32N 53°26' E 014°35'0 0.0
2015-Apr-28 16:32N 53°26' E 014°35'0 0.0
2015-Apr-28 15:32N 53°26' E 014°35'0 0.0
2015-Apr-28 14:33N 53°26' E 014°35'6 5.7
2015-Apr-28 13:33N 53°31' E 014°38'9 9.2
2015-Apr-28 12:33N 53°40' E 014°32'1010.5
2015-Apr-28 11:33N 53°48' E 014°21'7 7.3
2015-Apr-28 10:33N 53°55' E 014°17'9 8.9
2015-Apr-28 09:33N 54°04' E 014°14'1211.5
2015-Apr-28 08:33N 54°14' E 014°05'1211.7
2015-Apr-28 07:33N 54°24' E 013°54'1211.9
2015-Apr-28 06:33N 54°34' E 013°44'1211.7
2015-Apr-28 05:33N 54°42' E 013°29'1211.4
2015-Apr-28 04:33N 54°43' E 013°10'1211.7
2015-Apr-28 03:33N 54°41' E 012°50'1111.4
2015-Apr-28 02:33N 54°36' E 012°32'1111.1
2015-Apr-28 01:33N 54°30' E 012°16'1010.1
2015-Apr-28 00:33N 54°25' E 012°01'1111.3
2015-Apr-27 23:33N 54°26' E 011°42'1111.3
2015-Apr-27 22:33N 54°31' E 011°24'1111.4
2015-Apr-27 21:33N 54°35' E 011°06'159 4.2
2015-Apr-26 07:32N 57°13' E 010°44'10 9.4
2015-Apr-26 06:26N 57°23' E 010°42'8 9.6
2015-Apr-26 05:33N 57°31' E 010°44'10 9.5
2015-Apr-26 04:33N 57°41' E 010°45'7 7.2
2015-Apr-26 03:32N 57°46' E 010°35'18310.1
2015-Apr-25 09:32N 55°34' E 006°46'1010.1
2015-Apr-25 08:30N 55°25' E 006°37'1010.1
2015-Apr-25 07:32N 55°17' E 006°28'6310.0
2015-Apr-25 01:15N 54°22' E 005°33'710.3
2015-Apr-25 00:33N 54°16' E 005°27'1110.4
2015-Apr-24 23:32N 54°06' E 005°19'1010.5
2015-Apr-24 22:33N 53°57' E 005°12'1110.5
2015-Apr-24 21:33N 53°48' E 005°04'1110.7
2015-Apr-24 20:33N 53°39' E 004°54'1110.9
2015-Apr-24 19:33N 53°29' E 004°46'1110.5
2015-Apr-24 18:33N 53°19' E 004°38'1010.5
2015-Apr-24 17:33N 53°10' E 004°32'1010.1
2015-Apr-24 16:33N 53°01' E 004°23'11 9.8
2015-Apr-24 15:26N 52°51' E 004°16'8 9.5
2015-Apr-24 14:33N 52°42' E 004°15'9 9.5
2015-Apr-24 13:33N 52°34' E 004°22'10 9.5
2015-Apr-24 12:34N 52°28' E 004°34'2 2.3
2015-Apr-24 11:33N 52°28' E 004°38'0 0.0
2015-Apr-24 10:33N 52°28' E 004°38'0 0.0
2015-Apr-24 09:33N 52°28' E 004°38'  
Track history (hours):
 
Tides and Currents Weather Stations Pressure Air Temp Water Temp Dewpoint Dewpoint Depression Visibility Wind Speed Wind Dir Waves Ship Positions

Robijn

Last reported at 2015-May-04 09:09 UTC. Time now 2015-May-04 17:05 UTC.
Position N 50°02' W 002°49'.

Length 90 m; draft 5.3 m.

Type: Cargo ship. MMSI: 245909000.

Date/timePositionNaut miles runAvg speedWind from/ knotsBaromVisibWave heightAir tempDewpointWater temp
2015-May-04 09:09N 50°02' W 002°49'8 8.1
2015-May-04 08:08N 50°04' W 002°36'8 7.5
2015-May-04 07:05N 50°06' W 002°24'12 7.8
2015-May-04 05:31N 50°10' W 002°06'8810.8
2015-May-03 21:23N 50°33' E 000°07'6 7.8
2015-May-03 20:33N 50°35' E 000°17'8 7.8
2015-May-03 19:33N 50°38' E 000°28'9 9.0
2015-May-03 18:33N 50°42' E 000°41'1010.3
2015-May-03 17:33N 50°48' E 000°54'1110.6
2015-May-03 16:30N 50°54' E 001°09'1010.1
2015-May-03 15:33N 51°00' E 001°20'9 8.8
2015-May-03 14:33N 51°06' E 001°31'7 7.0
2015-May-03 13:34N 51°11' E 001°39'7 6.8
2015-May-03 12:34N 51°16' E 001°47'7 7.3
2015-May-03 11:33N 51°22' E 001°52'9 9.0
2015-May-03 10:33N 51°30' E 001°59'1110.9
2015-May-03 09:32N 51°38' E 002°11'6911.1
2015-May-03 03:22N 52°32' E 003°22'8 9.3
2015-May-03 02:33N 52°38' E 003°29'9 9.2
2015-May-03 01:33N 52°45' E 003°39'10 9.8
2015-May-03 00:31N 52°53' E 003°49'1010.9
2015-May-02 23:33N 53°00' E 004°02'1211.6
2015-May-02 22:33N 53°08' E 004°17'1411.5
2015-May-02 21:22N 53°19' E 004°30'911.3
2015-May-02 20:33N 53°27' E 004°37'1010.5
2015-May-02 19:33N 53°31' E 004°53'10 9.8
2015-May-02 18:33N 53°35' E 005°09'9 9.4
2015-May-02 17:33N 53°37' E 005°24'10 9.6
2015-May-02 16:33N 53°40' E 005°39'1010.3
2015-May-02 15:33N 53°44' E 005°56'4611.4
2015-May-02 11:29N 53°57' E 007°11'1010.5
2015-May-02 10:33N 53°59' E 007°27'10 9.8
2015-May-02 09:33N 54°01' E 007°44'10 9.6
2015-May-02 08:33N 54°01' E 008°00'9 9.2
2015-May-02 07:33N 54°01' E 008°16'9 9.1
2015-May-02 06:33N 53°59' E 008°31'1111.4
2015-May-02 05:33N 53°51' E 008°46'1313.1
2015-May-02 04:33N 53°53' E 009°08'5 4.6
2015-May-02 03:33N 53°56' E 009°13'8 8.0
2015-May-02 02:33N 54°04' E 009°19'14 4.5
2015-May-01 23:25N 54°13' E 009°36'9 6.6
2015-May-01 22:04N 54°20' E 009°45'5 7.4
2015-May-01 21:23N 54°21' E 009°53'4 5.0
2015-May-01 20:33N 54°21' E 010°00'4 4.2
2015-May-01 19:33N 54°22' E 010°08'0 0.0
2015-May-01 18:33N 54°22' E 010°08'1 0.6
2015-May-01 17:33N 54°22' E 010°09'6 6.1
2015-May-01 16:33N 54°27' E 010°14'1111.1
2015-May-01 15:33N 54°33' E 010°30'1211.3
2015-May-01 14:30N 54°35' E 010°51'1111.5
2015-May-01 13:33N 54°36' E 011°10'1211.8
2015-May-01 12:33N 54°32' E 011°28'1211.8
2015-May-01 11:33N 54°28' E 011°48'1111.4
2015-May-01 10:33N 54°27' E 012°07'1111.0
2015-May-01 09:33N 54°34' E 012°21'1211.5
2015-May-01 08:33N 54°39' E 012°40'1111.4
2015-May-01 07:33N 54°41' E 012°59'1211.7
2015-May-01 06:33N 54°42' E 013°19'1110.7
2015-May-01 05:33N 54°39' E 013°37'1111.2
2015-May-01 04:33N 54°31' E 013°51'1111.3
2015-May-01 03:33N 54°21' E 013°59'1111.4
2015-May-01 02:33N 54°11' E 014°07'1111.3
2015-May-01 01:33N 54°01' E 014°15'8 8.3
2015-May-01 00:33N 53°52' E 014°17'9 9.0
2015-Apr-30 23:33N 53°45' E 014°25'1110.5
2015-Apr-30 22:33N 53°36' E 014°35'9 8.7
2015-Apr-30 21:33N 53°28' E 014°36'3 3.2
2015-Apr-30 20:31N 53°24' E 014°36'0 0.0
2015-Apr-30 19:31N 53°24' E 014°36'0 0.0
2015-Apr-30 18:31N 53°24' E 014°36'0 0.0
2015-Apr-30 17:31N 53°24' E 014°36'0 0.0
2015-Apr-30 16:31N 53°24' E 014°36'0 0.0
2015-Apr-30 15:31N 53°24' E 014°36'0 0.0
2015-Apr-30 14:31N 53°24' E 014°36'0 0.0
2015-Apr-30 13:31N 53°24' E 014°36'0 0.0
2015-Apr-30 12:31N 53°24' E 014°36'0 0.0
2015-Apr-30 11:31N 53°24' E 014°36'0 0.0
2015-Apr-30 10:31N 53°24' E 014°36'0 0.0
2015-Apr-30 09:31N 53°24' E 014°36'0 0.0
2015-Apr-30 08:31N 53°24' E 014°36'0 0.0
2015-Apr-30 07:31N 53°24' E 014°36'0 0.0
2015-Apr-30 06:31N 53°24' E 014°36'0 0.0
2015-Apr-30 05:31N 53°24' E 014°36'0 0.0
2015-Apr-30 04:31N 53°24' E 014°36'0 0.0
2015-Apr-30 03:31N 53°24' E 014°36'0 0.0
2015-Apr-30 02:31N 53°24' E 014°36'0 0.0
2015-Apr-30 01:31N 53°24' E 014°36'0 0.0
2015-Apr-30 00:31N 53°24' E 014°36'0 0.0
2015-Apr-29 23:31N 53°24' E 014°36'0 0.0
2015-Apr-29 22:31N 53°24' E 014°36'0 0.0
2015-Apr-29 21:31N 53°24' E 014°36'0 0.0
2015-Apr-29 20:31N 53°24' E 014°36'0 0.0
2015-Apr-29 19:31N 53°24' E 014°36'0 0.0
2015-Apr-29 18:31N 53°24' E 014°36'0 0.0
2015-Apr-29 17:28N 53°24' E 014°36'0 0.0
2015-Apr-29 16:31N 53°24' E 014°36'0 0.0
2015-Apr-29 15:31N 53°24' E 014°36'0 0.0
2015-Apr-29 14:31N 53°24' E 014°36'0 0.0
2015-Apr-29 13:31N 53°24' E 014°36'0 0.0
2015-Apr-29 12:31N 53°24' E 014°36'0 0.0
2015-Apr-29 11:31N 53°24' E 014°36'0 0.0
2015-Apr-29 10:31N 53°24' E 014°36'0 0.0
2015-Apr-29 09:31N 53°24' E 014°36'0 0.0
2015-Apr-29 08:31N 53°24' E 014°36'2 2.2
2015-Apr-29 07:33N 53°26' E 014°35'1 0.6
2015-Apr-29 06:32N 53°26' E 014°35'0 0.0
2015-Apr-29 05:32N 53°26' E 014°35'0 0.0
2015-Apr-29 04:32N 53°26' E 014°35'0 0.0
2015-Apr-29 03:33N 53°26' E 014°35'0 0.0
2015-Apr-29 02:32N 53°26' E 014°35'0 0.0
2015-Apr-29 01:32N 53°26' E 014°35'0 0.0
2015-Apr-29 00:32N 53°26' E 014°35'0 0.0
2015-Apr-28 23:32N 53°26' E 014°35'0 0.0
2015-Apr-28 22:32N 53°26' E 014°35'0 0.0
2015-Apr-28 21:32N 53°26' E 014°35'0 0.0
2015-Apr-28 20:32N 53°26' E 014°35'0 0.0
2015-Apr-28 19:32N 53°26' E 014°35'0 0.0
2015-Apr-28 18:32N 53°26' E 014°35'0 0.0
2015-Apr-28 17:32N 53°26' E 014°35'0 0.0
2015-Apr-28 16:32N 53°26' E 014°35'0 0.0
2015-Apr-28 15:32N 53°26' E 014°35'0 0.0
2015-Apr-28 14:33N 53°26' E 014°35'6 5.7
2015-Apr-28 13:33N 53°31' E 014°38'9 9.2
2015-Apr-28 12:33N 53°40' E 014°32'1010.5
2015-Apr-28 11:33N 53°48' E 014°21'7 7.3
2015-Apr-28 10:33N 53°55' E 014°17'9 8.9
2015-Apr-28 09:33N 54°04' E 014°14'1211.5
2015-Apr-28 08:33N 54°14' E 014°05'1211.7
2015-Apr-28 07:33N 54°24' E 013°54'1211.9
2015-Apr-28 06:33N 54°34' E 013°44'1211.7
2015-Apr-28 05:33N 54°42' E 013°29'1211.4
2015-Apr-28 04:33N 54°43' E 013°10'1211.7
2015-Apr-28 03:33N 54°41' E 012°50'1111.4
2015-Apr-28 02:33N 54°36' E 012°32'1111.1
2015-Apr-28 01:33N 54°30' E 012°16'1010.1
2015-Apr-28 00:33N 54°25' E 012°01'1111.3
2015-Apr-27 23:33N 54°26' E 011°42'1111.3
2015-Apr-27 22:33N 54°31' E 011°24'1111.4
2015-Apr-27 21:33N 54°35' E 011°06'159 4.2
2015-Apr-26 07:32N 57°13' E 010°44'10 9.4
2015-Apr-26 06:26N 57°23' E 010°42'8 9.6
2015-Apr-26 05:33N 57°31' E 010°44'10 9.5
2015-Apr-26 04:33N 57°41' E 010°45'7 7.2
2015-Apr-26 03:32N 57°46' E 010°35'18310.1
2015-Apr-25 09:32N 55°34' E 006°46'1010.1
2015-Apr-25 08:30N 55°25' E 006°37'1010.1
2015-Apr-25 07:32N 55°17' E 006°28'6310.0
2015-Apr-25 01:15N 54°22' E 005°33'710.3
2015-Apr-25 00:33N 54°16' E 005°27'1110.4
2015-Apr-24 23:32N 54°06' E 005°19'1010.5
2015-Apr-24 22:33N 53°57' E 005°12'1110.5
2015-Apr-24 21:33N 53°48' E 005°04'1110.7
2015-Apr-24 20:33N 53°39' E 004°54'1110.9
2015-Apr-24 19:33N 53°29' E 004°46'1110.5
2015-Apr-24 18:33N 53°19' E 004°38'1010.5
2015-Apr-24 17:33N 53°10' E 004°32'1010.1
2015-Apr-24 16:33N 53°01' E 004°23'11 9.8
2015-Apr-24 15:26N 52°51' E 004°16'8 9.5
2015-Apr-24 14:33N 52°42' E 004°15'9 9.5
2015-Apr-24 13:33N 52°34' E 004°22'10 9.5
2015-Apr-24 12:34N 52°28' E 004°34'2 2.3
2015-Apr-24 11:33N 52°28' E 004°38'0 0.0
2015-Apr-24 10:33N 52°28' E 004°38'0 0.0
2015-Apr-24 09:33N 52°28' E 004°38'  

Dump ship's entire track history